Main page
METAR-TAF:

METAR-TAF

Airports :

Gloucestershire Airport

Gloucester, England

latitude: 51-54N, longitude: 002-10W, elevation: 29 m

Current weather observation

The report was made 11 hours and 37 minutes ago, at 18:20 UTC
Wind 7 kt from the South/Southeast
Temperature 20°C
Humidity 78%
Pressure 1011 hPa
Visibility 10 km or more
Scattered clouds at a height of 4200 ft

METAR: EGBJ 251820Z 16007KT 9999 SCT042 20/16 Q1011

Time: 06:57 (05:57 UTC)

Forecast

The report was made 16 hours and 1 minutes ago, at 13:56 UTC
Forecast valid from 25 at 15 UTC to 25 at 19 UTC
Wind 5 kt from the South
Visibility 10 km or more
Few clouds at a height of 2000 ft
Scattered clouds at a height of 3000 ft

TAF: EGBJ 251356Z 2515/2519 18005KT 9999 FEW020 SCT030

Weather observations and forecasts of more than 4000 airports (METAR and TAF reports).

The available stations are represented by yellow and red dots on the map.

Hover mouse over dot to see the name of the station.

Then click to see weather observations and forecasts.

To change the map : click on the green buttons with a black cross to zoom in, on the green button with a dash to zoom out, or on the green arrows for adjacent maps.


METAR-TAF: